FredonyerEastRWIS Atmospheric Data: 06/30/2020 Summary  Detailed Graphs  Station List

  Temperature     Wind Precipitation Visibility
Timestamp Air Wet
Bulb
Dew-
point
24-hr
Max
24-hr
Min
Relative
Humidity
Atmospheric
Pressure
Avg
Speed
Avg
Dir
Spot
Speed
Spot
Dir
Max
Speed
Max
Dir
  Rate Situation Start End 1 hr 3 hr 6 hr 12 hr 24 hr   Situation
Date Time °F °F °F °F °F % in Hg mph ° mph ° mph ° Y/N in/hr text Date Time Date Time in in in in in mi text
06/30/2020 12:08 AM 54.68 45.68 35.60 70.70 35.24 48.0 Not Reported 3.80 NW 4.25 W 6.26 W No 0.000 No Precipitation 06/15/2020 07:16 PM 06/15/2020 07:21 PM 0.000 0.000 0.000 0.000 0.000 Not Reported Not Reported
06/30/2020 12:23 AM 53.78 45.14 35.60 70.70 35.24 49.0 Not Reported 1.79 SW 1.12 NW 5.37 NW No 0.000 No Precipitation 06/15/2020 07:16 PM 06/15/2020 07:21 PM 0.000 0.000 0.000 0.000 0.000 Not Reported Not Reported
06/30/2020 12:38 AM 52.70 44.78 35.78 70.70 35.24 52.0 Not Reported 2.68 S 1.79 SW 4.47 SW No 0.000 No Precipitation 06/15/2020 07:16 PM 06/15/2020 07:21 PM 0.000 0.000 0.000 0.000 0.000 Not Reported Not Reported
06/30/2020 12:53 AM 51.44 44.06 35.42 70.70 35.24 54.0 Not Reported 2.46 SE 2.24 S 3.58 SE No 0.000 No Precipitation 06/15/2020 07:16 PM 06/15/2020 07:21 PM 0.000 0.000 0.000 0.000 0.000 Not Reported Not Reported
06/30/2020 01:08 AM 50.90 43.88 35.96 70.70 35.24 56.0 Not Reported 2.01 S 3.13 S 4.03 SE No 0.000 No Precipitation 06/15/2020 07:16 PM 06/15/2020 07:21 PM 0.000 0.000 0.000 0.000 0.000 Not Reported Not Reported
06/30/2020 01:23 AM 49.46 43.34 36.14 70.70 35.24 60.0 Not Reported 1.12 S 1.12 N 3.13 SW No 0.000 No Precipitation 06/15/2020 07:16 PM 06/15/2020 07:21 PM 0.000 0.000 0.000 0.000 0.000 Not Reported Not Reported
06/30/2020 01:38 AM 51.62 44.60 36.68 70.70 35.24 56.0 Not Reported 2.46 W 3.36 NW 3.58 NW No 0.000 No Precipitation 06/15/2020 07:16 PM 06/15/2020 07:21 PM 0.000 0.000 0.000 0.000 0.000 Not Reported Not Reported
06/30/2020 01:53 AM 50.18 43.70 36.50 70.70 35.24 59.0 Not Reported 2.24 S 0.45 N 2.91 SW No 0.000 No Precipitation 06/15/2020 07:16 PM 06/15/2020 07:21 PM 0.000 0.000 0.000 0.000 0.000 Not Reported Not Reported
06/30/2020 02:08 AM 49.64 43.52 36.50 70.70 35.24 60.0 Not Reported 2.68 S 3.36 S 3.58 S No 0.000 No Precipitation 06/15/2020 07:16 PM 06/15/2020 07:21 PM 0.000 0.000 0.000 0.000 0.000 Not Reported Not Reported
06/30/2020 02:23 AM 49.10 43.16 36.14 70.70 35.24 60.0 Not Reported 1.57 NW 0.45 SW 4.47 S No 0.000 No Precipitation 06/15/2020 07:16 PM 06/15/2020 07:21 PM 0.000 0.000 0.000 0.000 0.000 Not Reported Not Reported
06/30/2020 02:38 AM 47.30 42.08 35.78 70.70 35.24 64.0 Not Reported 0.45 W 0.45 SW 2.68 NW No 0.000 No Precipitation 06/15/2020 07:16 PM 06/15/2020 07:21 PM 0.000 0.000 0.000 0.000 0.000 Not Reported Not Reported
06/30/2020 02:53 AM 46.94 41.90 36.14 70.70 35.24 65.0 Not Reported 0.67 SE 0.67 S 3.13 SE No 0.000 No Precipitation 06/15/2020 07:16 PM 06/15/2020 07:21 PM 0.000 0.000 0.000 0.000 0.000 Not Reported Not Reported
06/30/2020 03:08 AM 45.86 41.18 35.42 70.70 35.24 66.0 Not Reported 1.34 W 1.57 SW 2.24 W No 0.000 No Precipitation 06/15/2020 07:16 PM 06/15/2020 07:21 PM 0.000 0.000 0.000 0.000 0.000 Not Reported Not Reported
06/30/2020 03:23 AM 45.86 41.90 37.40 70.70 35.24 71.0 Not Reported 0.89 W 2.68 W 4.03 SW No 0.000 No Precipitation 06/15/2020 07:16 PM 06/15/2020 07:21 PM 0.000 0.000 0.000 0.000 0.000 Not Reported Not Reported
06/30/2020 03:39 AM 44.78 40.82 36.32 70.70 35.24 72.0 Not Reported 1.34 SW 1.57 W 2.46 NW No 0.000 No Precipitation 06/15/2020 07:16 PM 06/15/2020 07:21 PM 0.000 0.000 0.000 0.000 0.000 Not Reported Not Reported
06/30/2020 03:53 AM 44.24 40.46 35.96 70.70 35.24 72.0 Not Reported 0.67 NW 0.45 W 1.12 NW No 0.000 No Precipitation 06/15/2020 07:16 PM 06/15/2020 07:21 PM 0.000 0.000 0.000 0.000 0.000 Not Reported Not Reported
06/30/2020 04:08 AM 43.34 40.10 36.14 70.70 35.24 75.0 Not Reported 1.57 NW 0.45 N 2.01 NW No 0.000 No Precipitation 06/15/2020 07:16 PM 06/15/2020 07:21 PM 0.000 0.000 0.000 0.000 0.000 Not Reported Not Reported
06/30/2020 04:23 AM 42.98 39.92 36.32 70.70 35.24 77.0 Not Reported 0.45 NW 1.34 NW 1.34 NW No 0.000 No Precipitation 06/15/2020 07:16 PM 06/15/2020 07:21 PM 0.000 0.000 0.000 0.000 0.000 Not Reported Not Reported
06/30/2020 04:39 AM 42.44 39.56 36.14 70.70 35.24 78.0 Not Reported 2.01 NW 0.22 N 2.68 NW No 0.000 No Precipitation 06/15/2020 07:16 PM 06/15/2020 07:21 PM 0.000 0.000 0.000 0.000 0.000 Not Reported Not Reported
06/30/2020 04:53 AM 41.90 39.38 36.32 70.70 35.24 80.0 Not Reported 1.12 NW 0.00 NE 2.01 NW No 0.000 No Precipitation 06/15/2020 07:16 PM 06/15/2020 07:21 PM 0.000 0.000 0.000 0.000 0.000 Not Reported Not Reported
06/30/2020 05:08 AM 41.54 39.38 36.50 70.70 35.24 82.0 Not Reported 0.00 N 0.22 W 1.79 NW No 0.000 No Precipitation 06/15/2020 07:16 PM 06/15/2020 07:21 PM 0.000 0.000 0.000 0.000 0.000 Not Reported Not Reported
06/30/2020 05:23 AM 42.08 39.56 36.32 70.70 35.24 79.0 Not Reported 1.79 NW 2.46 W 2.46 W No 0.000 No Precipitation 06/15/2020 07:16 PM 06/15/2020 07:21 PM 0.000 0.000 0.000 0.000 0.000 Not Reported Not Reported
06/30/2020 05:38 AM 41.00 39.02 36.32 70.70 35.24 83.0 Not Reported 0.67 W 0.67 W 0.89 NW No 0.000 No Precipitation 06/15/2020 07:16 PM 06/15/2020 07:21 PM 0.000 0.000 0.000 0.000 0.000 Not Reported Not Reported
06/30/2020 05:53 AM 40.64 38.66 36.32 70.70 35.24 84.0 Not Reported 0.22 NE 0.45 W 1.57 NE No 0.000 No Precipitation 06/15/2020 07:16 PM 06/15/2020 07:21 PM 0.000 0.000 0.000 0.000 0.000 Not Reported Not Reported
06/30/2020 06:08 AM 40.46 38.48 36.14 70.70 35.24 84.0 Not Reported 0.22 W 0.45 W 1.34 NW No 0.000 No Precipitation 06/15/2020 07:16 PM 06/15/2020 07:21 PM 0.000 0.000 0.000 0.000 0.000 Not Reported Not Reported
06/30/2020 06:23 AM 40.46 38.48 36.32 70.70 35.42 85.0 Not Reported 0.67 N 0.89 N 1.12 NW No 0.000 No Precipitation 06/15/2020 07:16 PM 06/15/2020 07:21 PM 0.000 0.000 0.000 0.000 0.000 Not Reported Not Reported
06/30/2020 06:38 AM 41.18 39.38 37.22 70.70 36.68 85.0 Not Reported 0.00 N 0.00 N 0.67 N No 0.000 No Precipitation 06/15/2020 07:16 PM 06/15/2020 07:21 PM 0.000 0.000 0.000 0.000 0.000 Not Reported Not Reported
06/30/2020 06:53 AM 42.62 40.28 37.58 70.70 38.84 81.0 Not Reported 0.45 NE 0.00 E 0.67 NE No 0.000 No Precipitation 06/15/2020 07:16 PM 06/15/2020 07:21 PM 0.000 0.000 0.000 0.000 0.000 Not Reported Not Reported
06/30/2020 07:08 AM 45.50 42.26 38.66 70.70 40.28 77.0 Not Reported 0.00 N 0.00 NE 0.67 N No 0.000 No Precipitation 06/15/2020 07:16 PM 06/15/2020 07:21 PM 0.000 0.000 0.000 0.000 0.000 Not Reported Not Reported
06/30/2020 07:23 AM 48.74 44.24 39.38 70.70 40.28 69.0 Not Reported 1.34 S 0.89 S 1.34 SE No 0.000 No Precipitation 06/15/2020 07:16 PM 06/15/2020 07:21 PM 0.000 0.000 0.000 0.000 0.000 Not Reported Not Reported
06/30/2020 07:38 AM 52.88 46.58 39.92 70.70 40.28 61.0 Not Reported 0.22 SE 1.34 SE 1.34 SE No 0.000 No Precipitation 06/15/2020 07:16 PM 06/15/2020 07:21 PM 0.000 0.000 0.000 0.000 0.000 Not Reported Not Reported
06/30/2020 07:53 AM 53.96 46.58 38.66 70.70 40.28 56.0 Not Reported 1.12 E 0.45 SE 2.46 E No 0.000 No Precipitation 06/15/2020 07:16 PM 06/15/2020 07:21 PM 0.000 0.000 0.000 0.000 0.000 Not Reported Not Reported
06/30/2020 08:08 AM 53.96 46.58 38.84 70.70 40.28 56.0 Not Reported 1.79 SE 1.79 SE 2.46 SE No 0.000 No Precipitation 06/15/2020 07:16 PM 06/15/2020 07:21 PM 0.000 0.000 0.000 0.000 0.000 Not Reported Not Reported
06/30/2020 08:24 AM 56.12 47.48 38.84 70.70 40.28 52.0 Not Reported 0.89 SE 1.79 S 3.13 SE No 0.000 No Precipitation 06/15/2020 07:16 PM 06/15/2020 07:21 PM 0.000 0.000 0.000 0.000 0.000 Not Reported Not Reported
06/30/2020 08:38 AM 57.56 48.38 39.20 70.70 40.28 50.0 Not Reported 2.46 SE 3.80 SE 3.80 SE No 0.000 No Precipitation 06/15/2020 07:16 PM 06/15/2020 07:21 PM 0.000 0.000 0.000 0.000 0.000 Not Reported Not Reported
06/30/2020 08:53 AM 59.00 48.92 38.66 70.70 40.28 46.0 Not Reported 2.68 SE 3.58 E 4.92 SE No 0.000 No Precipitation 06/15/2020 07:16 PM 06/15/2020 07:21 PM 0.000 0.000 0.000 0.000 0.000 Not Reported Not Reported
06/30/2020 09:08 AM 61.34 49.82 38.30 70.70 40.28 42.0 Not Reported 1.12 SE 1.57 S 4.70 S No 0.000 No Precipitation 06/15/2020 07:16 PM 06/15/2020 07:21 PM 0.000 0.000 0.000 0.000 0.000 Not Reported Not Reported
06/30/2020 09:23 AM 62.42 50.36 38.48 70.70 40.28 41.0 Not Reported 1.12 NE 0.89 NE 3.80 S No 0.000 No Precipitation 06/15/2020 07:16 PM 06/15/2020 07:21 PM 0.000 0.000 0.000 0.000 0.000 Not Reported Not Reported
06/30/2020 09:39 AM 61.88 49.64 37.22 70.70 40.28 39.0 Not Reported 0.89 S 4.03 SE 4.92 SE No 0.000 No Precipitation 06/15/2020 07:16 PM 06/15/2020 07:21 PM 0.000 0.000 0.000 0.000 0.000 Not Reported Not Reported
06/30/2020 09:53 AM 63.14 50.36 37.76 70.70 40.28 38.0 Not Reported 4.25 S 2.46 E 5.37 S No 0.000 No Precipitation 06/15/2020 07:16 PM 06/15/2020 07:21 PM 0.000 0.000 0.000 0.000 0.000 Not Reported Not Reported
06/30/2020 10:08 AM 62.78 49.64 35.96 70.70 40.28 36.0 Not Reported 5.37 W 3.58 SW 6.26 SW No 0.000 No Precipitation 06/15/2020 07:16 PM 06/15/2020 07:21 PM 0.000 0.000 0.000 0.000 0.000 Not Reported Not Reported
06/30/2020 10:23 AM 63.86 49.64 34.70 70.70 40.28 33.0 Not Reported 3.36 S 4.03 SE 6.04 SE No 0.000 No Precipitation 06/15/2020 07:16 PM 06/15/2020 07:21 PM 0.000 0.000 0.000 0.000 0.000 Not Reported Not Reported
06/30/2020 10:38 AM 66.92 50.72 33.80 70.70 40.28 29.0 Not Reported 2.68 N 1.79 NE 6.04 S No 0.000 No Precipitation 06/15/2020 07:16 PM 06/15/2020 07:21 PM 0.000 0.000 0.000 0.000 0.000 Not Reported Not Reported
06/30/2020 10:53 AM 67.28 51.08 33.98 70.70 40.28 29.0 Not Reported 3.58 S 3.36 SW 6.49 SE No 0.000 No Precipitation 06/15/2020 07:16 PM 06/15/2020 07:21 PM 0.000 0.000 0.000 0.000 0.000 Not Reported Not Reported
06/30/2020 11:08 AM 66.56 50.18 32.72 70.70 40.28 28.0 Not Reported 4.92 W 3.58 NW 6.71 W No 0.000 No Precipitation 06/15/2020 07:16 PM 06/15/2020 07:21 PM 0.000 0.000 0.000 0.000 0.000 Not Reported Not Reported
06/30/2020 11:23 AM 68.72 51.26 32.36 70.70 40.28 25.0 Not Reported 3.13 SE 1.57 SW 4.70 SE No 0.000 No Precipitation 06/15/2020 07:16 PM 06/15/2020 07:21 PM 0.000 0.000 0.000 0.000 0.000 Not Reported Not Reported
06/30/2020 11:39 AM 69.08 50.90 32.00 70.70 40.28 25.0 Not Reported 4.47 E 2.46 N 9.84 S No 0.000 No Precipitation 06/15/2020 07:16 PM 06/15/2020 07:21 PM 0.000 0.000 0.000 0.000 0.000 Not Reported Not Reported
06/30/2020 11:53 AM 68.18 50.54 31.28 70.70 40.28 24.0 Not Reported 3.80 S 5.59 SE 7.38 S No 0.000 No Precipitation 06/15/2020 07:16 PM 06/15/2020 07:21 PM 0.000 0.000 0.000 0.000 0.000 Not Reported Not Reported
06/30/2020 12:08 PM 70.16 51.44 31.46 70.70 40.28 23.0 Not Reported 2.91 SW 2.01 SW 6.04 E No 0.000 No Precipitation 06/15/2020 07:16 PM 06/15/2020 07:21 PM 0.000 0.000 0.000 0.000 0.000 Not Reported Not Reported
06/30/2020 12:23 PM 69.62 51.44 32.00 70.70 40.28 24.0 Not Reported 3.80 SE 4.25 W 8.05 S No 0.000 No Precipitation 06/15/2020 07:16 PM 06/15/2020 07:21 PM 0.000 0.000 0.000 0.000 0.000 Not Reported Not Reported
06/30/2020 12:38 PM 68.54 50.54 30.74 70.70 40.28 24.0 Not Reported 5.14 SW 2.46 S 8.05 SW No 0.000 No Precipitation 06/15/2020 07:16 PM 06/15/2020 07:21 PM 0.000 0.000 0.000 0.000 0.000 Not Reported Not Reported
06/30/2020 12:53 PM 69.44 50.90 30.92 71.24 40.28 23.0 Not Reported 5.14 W 3.36 NW 11.18 S No 0.000 No Precipitation 06/15/2020 07:16 PM 06/15/2020 07:21 PM 0.000 0.000 0.000 0.000 0.000 Not Reported Not Reported
06/30/2020 01:08 PM 69.98 50.90 30.02 71.42 40.28 22.0 Not Reported 4.92 S 3.36 E 6.49 SW No 0.000 No Precipitation 06/15/2020 07:16 PM 06/15/2020 07:21 PM 0.000 0.000 0.000 0.000 0.000 Not Reported Not Reported
06/30/2020 01:23 PM 72.14 52.16 31.28 73.22 40.28 21.0 Not Reported 4.47 S 7.16 S 13.20 SE No 0.000 No Precipitation 06/15/2020 07:16 PM 06/15/2020 07:21 PM 0.000 0.000 0.000 0.000 0.000 Not Reported Not Reported
06/30/2020 01:38 PM 71.42 52.34 32.18 73.40 40.28 23.0 Not Reported 6.26 SW 4.25 S 9.62 SW No 0.000 No Precipitation 06/15/2020 07:16 PM 06/15/2020 07:21 PM 0.000 0.000 0.000 0.000 0.000 Not Reported Not Reported
06/30/2020 01:54 PM 71.06 52.52 32.36 73.40 40.28 23.0 Not Reported 4.70 SE 4.92 S 8.28 S No 0.000 No Precipitation 06/15/2020 07:16 PM 06/15/2020 07:21 PM 0.000 0.000 0.000 0.000 0.000 Not Reported Not Reported
06/30/2020 02:08 PM 72.14 52.52 31.82 73.40 40.28 22.0 Not Reported 5.59 SW 5.37 S 9.84 W No 0.000 No Precipitation 06/15/2020 07:16 PM 06/15/2020 07:21 PM 0.000 0.000 0.000 0.000 0.000 Not Reported Not Reported
06/30/2020 02:23 PM 72.68 52.70 31.82 73.40 40.28 21.0 Not Reported 11.18 S 2.46 NW 14.32 S No 0.000 No Precipitation 06/15/2020 07:16 PM 06/15/2020 07:21 PM 0.000 0.000 0.000 0.000 0.000 Not Reported Not Reported
06/30/2020 02:38 PM 74.30 53.42 32.36 74.30 40.28 21.0 Not Reported 1.79 E 0.45 E 9.84 SW No 0.000 No Precipitation 06/15/2020 07:16 PM 06/15/2020 07:21 PM 0.000 0.000 0.000 0.000 0.000 Not Reported Not Reported
06/30/2020 02:53 PM 74.66 54.32 34.16 75.20 40.28 22.0 Not Reported 4.70 S 5.14 SE 8.72 W No 0.000 No Precipitation 06/15/2020 07:16 PM 06/15/2020 07:21 PM 0.000 0.000 0.000 0.000 0.000 Not Reported Not Reported
06/30/2020 03:08 PM 73.58 53.60 33.80 75.20 40.28 23.0 Not Reported 6.26 W 5.37 SW 10.29 S No 0.000 No Precipitation 06/15/2020 07:16 PM 06/15/2020 07:21 PM 0.000 0.000 0.000 0.000 0.000 Not Reported Not Reported
06/30/2020 03:23 PM 74.12 53.96 34.16 75.38 40.28 23.0 Not Reported 3.80 W 4.25 S 9.62 S No 0.000 No Precipitation 06/15/2020 07:16 PM 06/15/2020 07:21 PM 0.000 0.000 0.000 0.000 0.000 Not Reported Not Reported
06/30/2020 03:38 PM 73.22 53.78 34.88 76.10 40.28 24.0 Not Reported 5.14 SW 8.72 W 10.07 SW No 0.000 No Precipitation 06/15/2020 07:16 PM 06/15/2020 07:21 PM 0.000 0.000 0.000 0.000 0.000 Not Reported Not Reported
06/30/2020 03:53 PM 73.76 54.50 36.50 76.10 40.28 25.0 Not Reported 5.82 S 8.28 SW 8.95 W No 0.000 No Precipitation 06/15/2020 07:16 PM 06/15/2020 07:21 PM 0.000 0.000 0.000 0.000 0.000 Not Reported Not Reported
06/30/2020 04:08 PM 73.04 54.32 36.86 76.10 40.28 26.0 Not Reported 6.26 SW 7.38 S 9.62 SW No 0.000 No Precipitation 06/15/2020 07:16 PM 06/15/2020 07:21 PM 0.000 0.000 0.000 0.000 0.000 Not Reported Not Reported
06/30/2020 04:23 PM 74.48 55.22 37.58 76.10 40.28 26.0 Not Reported 7.61 S 7.83 W 9.40 SW No 0.000 No Precipitation 06/15/2020 07:16 PM 06/15/2020 07:21 PM 0.000 0.000 0.000 0.000 0.000 Not Reported Not Reported
06/30/2020 04:38 PM 73.22 54.86 37.94 76.10 40.28 27.0 Not Reported 6.93 S 3.36 S 10.51 SW No 0.000 No Precipitation 06/15/2020 07:16 PM 06/15/2020 07:21 PM 0.000 0.000 0.000 0.000 0.000 Not Reported Not Reported
06/30/2020 04:53 PM 72.68 54.68 37.94 76.10 40.28 28.0 Not Reported 4.92 SW 10.74 W 10.74 W No 0.000 No Precipitation 06/15/2020 07:16 PM 06/15/2020 07:21 PM 0.000 0.000 0.000 0.000 0.000 Not Reported Not Reported
06/30/2020 05:09 PM 72.68 55.04 38.84 76.10 40.28 29.0 Not Reported 4.92 S 2.68 S 9.17 W No 0.000 No Precipitation 06/15/2020 07:16 PM 06/15/2020 07:21 PM 0.000 0.000 0.000 0.000 0.000 Not Reported Not Reported
06/30/2020 05:24 PM 72.32 54.32 37.58 76.10 40.28 28.0 Not Reported 4.25 SW 10.29 W 10.29 W No 0.000 No Precipitation 06/15/2020 07:16 PM 06/15/2020 07:21 PM 0.000 0.000 0.000 0.000 0.000 Not Reported Not Reported
06/30/2020 05:39 PM 72.32 54.14 36.86 76.10 40.28 27.0 Not Reported 6.49 W 6.26 NW 10.51 S No 0.000 No Precipitation 06/15/2020 07:16 PM 06/15/2020 07:21 PM 0.000 0.000 0.000 0.000 0.000 Not Reported Not Reported
06/30/2020 05:53 PM 72.68 54.32 37.04 76.10 40.28 27.0 Not Reported 5.14 SW 6.49 S 9.62 NW No 0.000 No Precipitation 06/15/2020 07:16 PM 06/15/2020 07:21 PM 0.000 0.000 0.000 0.000 0.000 Not Reported Not Reported
06/30/2020 06:09 PM 72.86 54.50 37.76 76.10 40.28 27.0 Not Reported 7.61 S 2.91 NW 12.30 SW No 0.000 No Precipitation 06/15/2020 07:16 PM 06/15/2020 07:21 PM 0.000 0.000 0.000 0.000 0.000 Not Reported Not Reported
06/30/2020 06:23 PM 71.78 53.24 34.88 76.10 40.28 25.0 Not Reported 4.47 SW 7.61 NW 10.07 SE No 0.000 No Precipitation 06/15/2020 07:16 PM 06/15/2020 07:21 PM 0.000 0.000 0.000 0.000 0.000 Not Reported Not Reported
06/30/2020 06:38 PM 71.06 52.52 33.98 76.10 40.28 25.0 Not Reported 6.49 W 8.28 SW 8.72 W No 0.000 No Precipitation 06/15/2020 07:16 PM 06/15/2020 07:21 PM 0.000 0.000 0.000 0.000 0.000 Not Reported Not Reported
06/30/2020 06:53 PM 71.06 51.80 31.46 76.10 40.28 22.0 Not Reported 3.36 SW 5.14 SW 6.04 SW No 0.000 No Precipitation 06/15/2020 07:16 PM 06/15/2020 07:21 PM 0.000 0.000 0.000 0.000 0.000 Not Reported Not Reported
06/30/2020 07:09 PM 69.44 50.90 30.56 76.10 40.28 23.0 Not Reported 6.26 W 4.47 SW 10.96 SW No 0.000 No Precipitation 06/15/2020 07:16 PM 06/15/2020 07:21 PM 0.000 0.000 0.000 0.000 0.000 Not Reported Not Reported
06/30/2020 07:23 PM 68.54 50.36 30.20 76.10 40.28 23.0 Not Reported 5.14 S 3.13 W 9.40 SW No 0.000 No Precipitation 06/15/2020 07:16 PM 06/15/2020 07:21 PM 0.000 0.000 0.000 0.000 0.000 Not Reported Not Reported
06/30/2020 07:39 PM 67.82 50.18 30.92 76.10 40.28 25.0 Not Reported 3.80 W 3.80 SW 6.71 SW No 0.000 No Precipitation 06/15/2020 07:16 PM 06/15/2020 07:21 PM 0.000 0.000 0.000 0.000 0.000 Not Reported Not Reported
06/30/2020 07:53 PM 67.28 50.00 31.10 76.10 40.28 25.0 Not Reported 4.25 W 3.36 NW 7.16 SW No 0.000 No Precipitation 06/15/2020 07:16 PM 06/15/2020 07:21 PM 0.000 0.000 0.000 0.000 0.000 Not Reported Not Reported
06/30/2020 08:08 PM 66.56 50.00 32.00 76.10 40.28 27.0 Not Reported 3.13 SW 2.46 W 4.03 S No 0.000 No Precipitation 06/15/2020 07:16 PM 06/15/2020 07:21 PM 0.000 0.000 0.000 0.000 0.000 Not Reported Not Reported
06/30/2020 08:23 PM 65.30 49.10 30.92 76.10 40.28 27.0 Not Reported 1.57 W 2.24 SW 5.82 W No 0.000 No Precipitation 06/15/2020 07:16 PM 06/15/2020 07:21 PM 0.000 0.000 0.000 0.000 0.000 Not Reported Not Reported
06/30/2020 08:38 PM 62.78 48.56 32.54 76.10 40.28 31.0 Not Reported 2.46 W 1.79 W 3.58 SW No 0.000 No Precipitation 06/15/2020 07:16 PM 06/15/2020 07:21 PM 0.000 0.000 0.000 0.000 0.000 Not Reported Not Reported
06/30/2020 08:53 PM 59.90 47.48 33.62 76.10 40.28 37.0 Not Reported 1.79 W 1.79 NW 2.91 W No 0.000 No Precipitation 06/15/2020 07:16 PM 06/15/2020 07:21 PM 0.000 0.000 0.000 0.000 0.000 Not Reported Not Reported
06/30/2020 09:09 PM 57.56 46.04 32.54 76.10 40.28 38.0 Not Reported 2.46 W 3.13 NW 3.58 NW No 0.000 No Precipitation 06/15/2020 07:16 PM 06/15/2020 07:21 PM 0.000 0.000 0.000 0.000 0.000 Not Reported Not Reported
06/30/2020 09:23 PM 57.38 45.86 32.36 76.10 40.28 38.0 Not Reported 2.24 W 2.24 W 3.36 W No 0.000 No Precipitation 06/15/2020 07:16 PM 06/15/2020 07:21 PM 0.000 0.000 0.000 0.000 0.000 Not Reported Not Reported
06/30/2020 09:38 PM 55.76 44.96 32.00 76.10 40.28 39.0 Not Reported 1.79 W 2.24 W 2.46 W No 0.000 No Precipitation 06/15/2020 07:16 PM 06/15/2020 07:21 PM 0.000 0.000 0.000 0.000 0.000 Not Reported Not Reported
06/30/2020 09:53 PM 54.14 44.06 31.82 76.10 40.28 42.0 Not Reported 1.34 W 1.57 W 2.01 W No 0.000 No Precipitation 06/15/2020 07:16 PM 06/15/2020 07:21 PM 0.000 0.000 0.000 0.000 0.000 Not Reported Not Reported
06/30/2020 10:09 PM 53.42 43.70 31.82 76.10 40.28 43.0 Not Reported 1.12 SW 1.12 W 2.68 W No 0.000 No Precipitation 06/15/2020 07:16 PM 06/15/2020 07:21 PM 0.000 0.000 0.000 0.000 0.000 Not Reported Not Reported
06/30/2020 10:23 PM 52.52 43.34 32.00 76.10 40.28 45.0 Not Reported 1.12 SW 0.89 W 2.01 W No 0.000 No Precipitation 06/15/2020 07:16 PM 06/15/2020 07:21 PM 0.000 0.000 0.000 0.000 0.000 Not Reported Not Reported
06/30/2020 10:38 PM 50.90 42.62 32.00 76.10 40.28 48.0 Not Reported 0.67 SW 0.89 SW 1.34 SW No 0.000 No Precipitation 06/15/2020 07:16 PM 06/15/2020 07:21 PM 0.000 0.000 0.000 0.000 0.000 Not Reported Not Reported
06/30/2020 10:53 PM 51.80 43.52 33.62 76.10 40.28 49.0 Not Reported 2.24 W 2.01 W 4.70 NW No 0.000 No Precipitation 06/15/2020 07:16 PM 06/15/2020 07:21 PM 0.000 0.000 0.000 0.000 0.000 Not Reported Not Reported
06/30/2020 11:08 PM 50.54 42.98 33.62 76.10 40.28 51.0 Not Reported 2.46 W 2.46 W 3.80 NW No 0.000 No Precipitation 06/15/2020 07:16 PM 06/15/2020 07:21 PM 0.000 0.000 0.000 0.000 0.000 Not Reported Not Reported
06/30/2020 11:23 PM 52.88 44.60 35.06 76.10 40.28 50.0 Not Reported 3.13 W 1.57 W 4.47 W No 0.000 No Precipitation 06/15/2020 07:16 PM 06/15/2020 07:21 PM 0.000 0.000 0.000 0.000 0.000 Not Reported Not Reported
06/30/2020 11:38 PM 51.44 43.70 34.88 76.10 40.28 52.0 Not Reported 2.68 W 1.79 W 3.36 SW No 0.000 No Precipitation 06/15/2020 07:16 PM 06/15/2020 07:21 PM 0.000 0.000 0.000 0.000 0.000 Not Reported Not Reported
06/30/2020 11:53 PM 51.98 44.06 34.70 76.10 40.28 51.0 Not Reported 2.68 W 2.68 W 3.13 W No 0.000 No Precipitation 06/15/2020 07:16 PM 06/15/2020 07:21 PM 0.000 0.000 0.000 0.000 0.000 Not Reported Not Reported